createdAt,value
2022-11-18T00:01:05.688Z,97533.00
2022-11-18T00:03:53.684Z,97534.59
2022-11-18T00:06:41.016Z,97533.78
2022-11-18T00:09:28.346Z,97535.69
2022-11-18T00:12:34.262Z,97542.41
2022-11-18T00:15:21.528Z,97545.91
2022-11-18T00:18:09.059Z,97539.34
2022-11-18T00:20:56.105Z,97536.00
2022-11-18T00:23:43.432Z,97535.22
2022-11-18T00:26:30.641Z,97524.97
2022-11-18T00:29:19.404Z,97522.41
2022-11-18T00:32:07.543Z,97526.72
2022-11-18T00:34:54.920Z,97529.28
2022-11-18T00:37:41.816Z,97521.75
2022-11-18T00:40:28.805Z,97531.19
2022-11-18T00:43:15.021Z,97533.75
2022-11-18T00:46:03.754Z,97524.47
2022-11-18T00:48:50.825Z,97533.91
2022-11-18T00:51:38.335Z,97530.53
2022-11-18T00:54:25.646Z,97527.19
2022-11-18T00:57:12.953Z,97536.63
2022-11-18T00:59:59.998Z,97525.72
2022-11-18T01:02:48.483Z,97529.22
2022-11-18T01:05:35.683Z,97537.72
2022-11-18T01:08:23.475Z,97540.44
2022-11-18T01:11:30.217Z,97538.00
2022-11-18T01:14:17.465Z,97541.53
2022-11-18T01:17:05.863Z,97550.94
2022-11-18T01:19:54.184Z,97543.28
2022-11-18T01:22:41.333Z,97547.44
2022-11-18T01:25:29.524Z,97550.94
2022-11-18T01:28:23.289Z,97550.94
2022-11-18T01:31:13.856Z,97550.94
2022-11-18T01:34:01.271Z,97562.94
2022-11-18T01:36:49.663Z,97555.28
2022-11-18T01:39:37.043Z,97560.38
2022-11-18T01:42:24.911Z,97562.94
2022-11-18T01:45:27.896Z,97571.41
2022-11-18T01:48:20.990Z,97564.69
2022-11-18T01:51:13.487Z,97570.63
2022-11-18T01:54:08.299Z,97570.63
2022-11-18T01:57:00.971Z,97570.63
2022-11-18T01:59:52.111Z,97568.06
2022-11-18T02:02:39.752Z,97574.91
2022-11-18T02:05:27.649Z,97569.69
2022-11-18T02:08:15.954Z,97572.22
2022-11-18T02:11:04.580Z,97572.22
2022-11-18T02:13:52.000Z,97583.25
2022-11-18T02:16:55.816Z,97581.50
2022-11-18T02:20:25.839Z,97582.47
2022-11-18T02:24:00.413Z,97583.41
2022-11-18T02:27:29.614Z,97584.38
2022-11-18T02:30:20.223Z,97584.38
2022-11-18T02:33:13.436Z,97582.59
2022-11-18T02:36:09.829Z,97583.41
2022-11-18T02:39:04.951Z,97585.97
2022-11-18T02:41:55.483Z,97585.16
2022-11-18T02:44:48.896Z,97588.38
2022-11-18T02:47:38.770Z,97587.59
2022-11-18T02:50:27.982Z,97584.88
2022-11-18T02:53:20.839Z,97594.28
2022-11-18T02:56:10.101Z,97591.72
2022-11-18T02:58:57.499Z,97590.94
2022-11-18T03:01:45.042Z,97581.66
2022-11-18T03:04:34.083Z,97594.28
2022-11-18T03:07:27.437Z,97596.84
2022-11-18T03:10:14.904Z,97598.63
2022-11-18T03:13:12.964Z,97601.97
2022-11-18T03:16:04.244Z,97604.53
2022-11-18T03:18:58.324Z,97602.13
2022-11-18T03:21:54.940Z,97609.94
2022-11-18T03:24:48.872Z,97609.94
2022-11-18T03:27:40.490Z,97619.22
2022-11-18T03:30:28.498Z,97620.97
2022-11-18T03:33:23.181Z,97624.50
2022-11-18T03:36:14.070Z,97624.66
2022-11-18T03:39:06.678Z,97620.47
2022-11-18T03:41:57.376Z,97624.66
2022-11-18T03:44:52.603Z,97631.34
2022-11-18T03:47:43.755Z,97624.50
2022-11-18T03:50:35.993Z,97627.84
2022-11-18T03:53:28.256Z,97636.31
2022-11-18T03:56:22.473Z,97640.63
2022-11-18T03:59:15.444Z,97639.03
2022-11-18T04:02:08.423Z,97639.03
2022-11-18T04:04:58.725Z,97649.25
2022-11-18T04:07:57.514Z,97649.25
2022-11-18T04:10:51.297Z,97643.34
2022-11-18T04:13:40.686Z,97643.34
2022-11-18T04:16:28.120Z,97655.19
2022-11-18T04:19:15.185Z,97650.88
2022-11-18T04:22:02.250Z,97657.59
2022-11-18T04:24:49.440Z,97649.94
2022-11-18T04:27:36.646Z,97659.22
2022-11-18T04:30:24.983Z,97660.16
2022-11-18T04:33:12.319Z,97660.00
2022-11-18T04:35:59.298Z,97669.31
2022-11-18T04:38:46.345Z,97662.56
2022-11-18T04:41:51.727Z,97667.53
2022-11-18T04:44:38.864Z,97663.38
2022-11-18T04:47:27.452Z,97676.03
2022-11-18T04:50:14.437Z,97668.38
2022-11-18T04:53:01.732Z,97673.47
2022-11-18T04:55:49.137Z,97676.69
2022-11-18T04:58:36.120Z,97682.59
2022-11-18T05:01:23.291Z,97678.44
2022-11-18T05:04:16.787Z,97692.81
2022-11-18T05:07:06.172Z,97690.25
2022-11-18T05:09:53.395Z,97692.81
2022-11-18T05:12:52.609Z,97693.66
2022-11-18T05:15:39.960Z,97702.09
2022-11-18T05:18:27.151Z,97697.94
2022-11-18T05:21:15.524Z,97701.31
2022-11-18T05:24:03.264Z,97700.50
2022-11-18T05:26:50.493Z,97704.66
2022-11-18T05:29:37.483Z,97709.00
2022-11-18T05:32:24.523Z,97712.34
2022-11-18T05:35:11.621Z,97716.53
2022-11-18T05:38:00.163Z,97721.63
2022-11-18T05:40:48.183Z,97727.69
2022-11-18T05:43:35.441Z,97725.13
2022-11-18T05:46:22.496Z,97737.78
2022-11-18T05:49:09.691Z,97737.00
2022-11-18T05:51:56.944Z,97743.72
2022-11-18T05:54:51.280Z,97749.63
2022-11-18T05:57:38.600Z,97740.34
2022-11-18T06:00:25.602Z,97753.97
2022-11-18T06:03:19.816Z,97753.13
2022-11-18T06:06:09.447Z,97757.47
2022-11-18T06:09:02.499Z,97766.06
2022-11-18T06:11:56.457Z,97765.44
2022-11-18T06:14:47.789Z,97775.00
2022-11-18T06:17:44.358Z,97781.72
2022-11-18T06:20:31.935Z,97790.34
2022-11-18T06:23:19.580Z,97789.56
2022-11-18T06:26:07.267Z,97799.94
2022-11-18T06:28:57.180Z,97805.84
2022-11-18T06:31:44.366Z,97810.03
2022-11-18T06:34:33.561Z,97817.84
2022-11-18T06:37:22.740Z,97828.19
2022-11-18T06:40:11.747Z,97819.72
2022-11-18T06:43:16.800Z,97835.06
2022-11-18T06:46:25.195Z,97848.03
2022-11-18T06:49:12.877Z,97846.41
2022-11-18T06:52:00.183Z,97858.41
2022-11-18T06:54:47.268Z,97864.47
2022-11-18T06:57:34.378Z,97864.47
2022-11-18T07:00:22.012Z,97869.56
2022-11-18T07:03:10.524Z,97878.19
2022-11-18T07:05:39.443Z,97887.47
2022-11-18T07:08:08.077Z,97893.53
2022-11-18T07:10:36.709Z,97900.28
2022-11-18T07:13:05.539Z,97896.78
2022-11-18T07:15:35.440Z,97905.38
2022-11-18T07:18:04.190Z,97913.06
2022-11-18T07:20:35.654Z,97918.19
2022-11-18T07:23:04.287Z,97913.06
2022-11-18T07:25:32.962Z,97915.63
2022-11-18T07:28:01.603Z,97915.63
2022-11-18T07:30:30.237Z,97923.28
2022-11-18T07:32:58.929Z,97932.75
2022-11-18T07:35:27.523Z,97935.31
2022-11-18T07:37:57.516Z,97934.47
2022-11-18T07:40:26.080Z,97943.91
2022-11-18T07:42:55.535Z,97947.41
2022-11-18T07:45:24.935Z,97949.16
2022-11-18T07:47:53.572Z,97955.09
2022-11-18T07:50:22.172Z,97952.53
2022-11-18T07:52:50.808Z,97952.66
2022-11-18T07:55:20.749Z,97957.63
2022-11-18T07:57:49.406Z,97956.84
2022-11-18T08:00:19.719Z,97967.09
2022-11-18T08:02:52.008Z,97970.56
2022-11-18T08:05:20.747Z,97972.34
2022-11-18T08:07:49.362Z,97974.06
2022-11-18T08:10:18.312Z,97976.63
2022-11-18T08:12:48.370Z,97974.91
2022-11-18T08:15:17.219Z,97974.06
2022-11-18T08:17:48.764Z,97984.31
2022-11-18T08:20:18.075Z,97982.56
2022-11-18T08:22:46.774Z,97988.50
2022-11-18T08:25:15.408Z,97985.00
2022-11-18T08:27:44.061Z,97992.66
2022-11-18T08:30:15.212Z,97993.47
2022-11-18T08:32:43.840Z,97996.84
2022-11-18T08:35:12.517Z,97996.84
2022-11-18T08:37:41.276Z,97996.84
2022-11-18T08:40:11.633Z,98003.53
2022-11-18T08:42:40.292Z,97994.28
2022-11-18T08:45:09.765Z,98001.00
2022-11-18T08:47:39.823Z,98000.19
2022-11-18T08:50:12.246Z,98001.81
2022-11-18T08:52:40.919Z,98004.38
2022-11-18T08:55:12.169Z,98005.97
2022-11-18T08:57:41.146Z,98005.16
2022-11-18T09:00:12.118Z,98007.72
2022-11-18T09:02:42.212Z,98010.28
2022-11-18T09:05:11.247Z,98009.34
2022-11-18T09:07:39.942Z,98017.16
2022-11-18T09:10:09.917Z,98018.75
2022-11-18T09:12:41.384Z,98013.63
2022-11-18T09:15:14.180Z,98023.06
2022-11-18T09:17:44.976Z,98018.75
2022-11-18T09:20:13.671Z,98023.06
2022-11-18T09:22:42.368Z,98034.09
2022-11-18T09:25:11.655Z,98025.50
2022-11-18T09:27:40.405Z,98029.81
2022-11-18T09:30:10.851Z,98024.69
2022-11-18T09:32:39.491Z,98036.56
2022-11-18T09:35:09.711Z,98038.16
2022-11-18T09:37:38.335Z,98038.97
2022-11-18T09:40:08.513Z,98042.31
2022-11-18T09:42:52.431Z,98044.09
2022-11-18T09:45:26.288Z,98044.09
2022-11-18T09:47:58.897Z,98049.19
2022-11-18T09:53:22.490Z,98055.13
2022-11-18T09:55:52.814Z,98055.13
2022-11-18T09:58:28.661Z,98064.41
2022-11-18T10:00:57.371Z,98063.47
2022-11-18T10:03:30.304Z,98066.03
2022-11-18T10:06:07.266Z,98065.06
2022-11-18T10:08:46.678Z,98069.25
2022-11-18T10:11:19.442Z,98071.81
2022-11-18T10:13:58.414Z,98064.81
2022-11-18T10:16:44.640Z,98075.06
2022-11-18T10:19:27.480Z,98071.66
2022-11-18T10:22:19.463Z,98071.66
2022-11-18T10:24:53.564Z,98079.34
2022-11-18T10:27:25.403Z,98077.59
2022-11-18T10:29:58.407Z,98084.31
2022-11-18T10:32:27.095Z,98086.88
2022-11-18T10:34:58.408Z,98086.88
2022-11-18T10:38:06.824Z,98089.31
2022-11-18T10:40:28.095Z,98090.25
2022-11-18T10:42:57.259Z,98093.63
2022-11-18T10:45:30.531Z,98092.69
2022-11-18T10:48:03.026Z,98095.22
2022-11-18T10:50:37.327Z,98093.47
2022-11-18T10:53:30.638Z,98092.69
2022-11-18T10:56:01.032Z,98096.84
2022-11-18T10:58:32.673Z,98096.84
2022-11-18T11:01:07.791Z,98095.09
2022-11-18T11:03:39.143Z,98093.31
2022-11-18T11:06:34.595Z,98093.31
2022-11-18T11:09:12.524Z,98086.47
2022-11-18T11:11:44.337Z,98091.59
2022-11-18T11:14:22.472Z,98092.38
2022-11-18T11:17:01.613Z,98089.84
2022-11-18T11:19:40.995Z,98094.94
2022-11-18T11:22:12.521Z,98097.50
2022-11-18T11:24:42.865Z,98094.00
2022-11-18T11:30:27.396Z,98094.94
2022-11-18T11:33:24.101Z,98104.25
2022-11-18T11:36:12.830Z,98106.81
2022-11-18T11:39:04.276Z,98106.81
2022-11-18T11:41:46.438Z,98105.03
2022-11-18T11:44:32.056Z,98107.59
2022-11-18T11:47:35.335Z,98106.81
2022-11-18T11:50:14.849Z,98117.84
2022-11-18T11:52:54.834Z,98113.56
2022-11-18T11:55:29.595Z,98113.56
2022-11-18T11:58:14.838Z,98114.34
2022-11-18T12:00:50.415Z,98115.13
2022-11-18T12:03:51.414Z,98111.00
2022-11-18T12:06:20.820Z,98103.31
2022-11-18T12:09:02.046Z,98109.09
2022-11-18T12:11:38.479Z,98111.63
2022-11-18T12:14:16.693Z,98116.75
2022-11-18T12:16:51.764Z,98119.06
2022-11-18T12:19:23.223Z,98115.69
2022-11-18T12:22:04.017Z,98114.75
2022-11-18T12:24:40.178Z,98117.31
2022-11-18T12:27:15.620Z,98119.72
2022-11-18T12:29:57.720Z,98115.41
2022-11-18T12:32:36.648Z,98120.50
2022-11-18T12:35:24.415Z,98116.22
2022-11-18T12:38:02.111Z,98119.59
2022-11-18T12:40:40.923Z,98128.09
2022-11-18T12:44:05.858Z,98124.84
2022-11-18T12:46:54.047Z,98122.13
2022-11-18T12:50:15.179Z,98121.34
2022-11-18T12:52:50.591Z,98121.34
2022-11-18T12:55:24.154Z,98125.53
2022-11-18T12:57:53.151Z,98129.69
2022-11-18T13:00:52.458Z,98126.31
2022-11-18T13:03:32.067Z,98134.00
2022-11-18T13:06:12.817Z,98137.34
2022-11-18T13:08:42.546Z,98143.44
2022-11-18T13:11:34.628Z,98147.72
2022-11-18T13:14:23.589Z,98152.06
2022-11-18T13:17:09.619Z,98154.63
2022-11-18T13:19:39.685Z,98152.19
2022-11-18T13:22:36.620Z,98158.13
2022-11-18T13:25:05.615Z,98153.94
2022-11-18T13:27:48.234Z,98147.22
2022-11-18T13:30:18.593Z,98146.41
2022-11-18T13:32:49.173Z,98142.09
2022-11-18T13:35:22.351Z,98147.22
2022-11-18T13:37:54.151Z,98146.41
2022-11-18T13:40:27.523Z,98145.59
2022-11-18T13:42:56.267Z,98147.22
2022-11-18T13:45:28.776Z,98148.03
2022-11-18T13:48:02.524Z,98150.72
2022-11-18T13:50:37.148Z,98155.84
2022-11-18T13:53:17.792Z,98159.34
2022-11-18T13:55:50.253Z,98149.91
2022-11-18T13:59:02.679Z,98149.25
2022-11-18T14:01:28.580Z,98161.22
2022-11-18T14:03:59.979Z,98157.84
2022-11-18T14:06:32.336Z,98156.09
2022-11-18T14:09:22.428Z,98159.63
2022-11-18T14:12:05.461Z,98165.66
2022-11-18T14:14:36.500Z,98162.31
2022-11-18T14:17:17.268Z,98157.19
2022-11-18T14:19:47.148Z,98167.44
2022-11-18T14:22:20.465Z,98166.59
2022-11-18T14:24:57.736Z,98164.06
2022-11-18T14:27:48.432Z,98156.38
2022-11-18T14:30:41.722Z,98167.53
2022-11-18T14:33:20.713Z,98171.72
2022-11-18T14:35:59.271Z,98175.22
2022-11-18T14:39:19.815Z,98177.78
2022-11-18T14:41:49.755Z,98173.63
2022-11-18T14:44:19.891Z,98180.34
2022-11-18T14:46:53.690Z,98177.78
2022-11-18T14:49:25.162Z,98179.41
2022-11-18T14:51:55.750Z,98180.34
2022-11-18T14:54:28.245Z,98185.47
2022-11-18T14:57:01.293Z,98185.47
2022-11-18T14:59:30.442Z,98185.47
2022-11-18T15:01:59.740Z,98184.66
2022-11-18T15:04:28.544Z,98192.34
2022-11-18T15:06:57.267Z,98186.56
2022-11-18T15:09:27.375Z,98197.59
2022-11-18T15:11:56.063Z,98194.09
2022-11-18T15:14:24.974Z,98194.25
2022-11-18T15:16:53.696Z,98204.47
2022-11-18T15:19:22.400Z,98199.38
2022-11-18T15:21:51.140Z,98192.47
2022-11-18T15:24:20.265Z,98200.16
2022-11-18T15:26:50.924Z,98212.16
2022-11-18T15:29:21.541Z,98211.34
2022-11-18T15:31:50.451Z,98219.00
2022-11-18T15:34:21.650Z,98225.06
2022-11-18T15:36:51.169Z,98219.16
2022-11-18T15:39:19.985Z,98215.78
2022-11-18T15:41:50.113Z,98214.16
2022-11-18T15:44:19.029Z,98219.28
2022-11-18T15:46:48.947Z,98222.00
2022-11-18T15:49:18.653Z,98217.81
2022-11-18T15:51:47.479Z,98224.78
2022-11-18T15:54:16.411Z,98235.03
2022-11-18T15:56:45.664Z,98219.81
2022-11-18T15:59:17.351Z,98233.56
2022-11-18T16:01:49.113Z,98226.00
2022-11-18T16:04:19.785Z,98227.75
2022-11-18T16:06:48.785Z,98228.69
2022-11-18T16:09:18.816Z,98238.94
2022-11-18T16:12:05.278Z,98237.34
2022-11-18T16:14:38.464Z,98232.34
2022-11-18T16:17:07.258Z,98242.69
2022-11-18T16:19:36.031Z,98239.34
2022-11-18T16:22:04.784Z,98248.78
2022-11-18T16:24:33.497Z,98255.50
2022-11-18T16:27:04.666Z,98257.41
2022-11-18T16:29:37.585Z,98251.44
2022-11-18T16:32:15.310Z,98258.31
2022-11-18T16:34:43.948Z,98256.56
2022-11-18T16:37:12.683Z,98254.97
2022-11-18T16:39:41.360Z,98263.44
2022-11-18T16:42:13.675Z,98266.00
2022-11-18T16:44:44.012Z,98260.09
2022-11-18T16:47:15.815Z,98267.75
2022-11-18T16:49:45.248Z,98262.78
2022-11-18T16:52:14.139Z,98266.94
2022-11-18T16:54:45.809Z,98268.00
2022-11-18T16:57:15.214Z,98276.50
2022-11-18T16:59:45.328Z,98271.38
2022-11-18T17:02:15.426Z,98279.06
2022-11-18T17:04:44.500Z,98281.63
2022-11-18T17:07:14.227Z,98285.13
2022-11-18T17:09:43.394Z,98285.13
2022-11-18T17:12:12.335Z,98288.47
2022-11-18T17:14:41.166Z,98283.34
2022-11-18T17:17:13.835Z,98292.00
2022-11-18T17:19:42.476Z,98295.34
2022-11-18T17:22:11.095Z,98288.59
2022-11-18T17:24:39.772Z,98289.44
2022-11-18T17:27:09.139Z,98289.50
2022-11-18T17:29:37.807Z,98287.78
2022-11-18T17:32:07.376Z,98300.56
2022-11-18T17:34:37.359Z,98298.00
2022-11-18T17:37:07.268Z,98302.31
2022-11-18T17:39:36.456Z,98301.50
2022-11-18T17:42:22.538Z,98315.09
2022-11-18T17:44:51.192Z,98310.09
2022-11-18T17:47:19.855Z,98314.44
2022-11-18T17:49:51.362Z,98314.44
2022-11-18T17:52:20.438Z,98312.81
2022-11-18T17:54:51.012Z,98319.53
2022-11-18T17:57:19.631Z,98316.19
2022-11-18T17:59:48.658Z,98312.81
2022-11-18T18:02:18.745Z,98317.91
2022-11-18T18:04:48.893Z,98321.41
2022-11-18T18:07:17.550Z,98326.53
2022-11-18T18:09:46.148Z,98323.31
2022-11-18T18:12:32.355Z,98336.09
2022-11-18T18:15:00.947Z,98345.53
2022-11-18T18:17:29.600Z,98340.41
2022-11-18T18:19:59.559Z,98338.66
2022-11-18T18:22:28.176Z,98343.78
2022-11-18T18:24:56.963Z,98339.44
2022-11-18T18:27:26.235Z,98338.66
2022-11-18T18:29:55.864Z,98343.78
2022-11-18T18:32:24.535Z,98345.38
2022-11-18T18:34:53.143Z,98340.28
2022-11-18T18:37:23.222Z,98338.66
2022-11-18T18:39:51.832Z,98342.16
2022-11-18T18:42:20.444Z,98349.00
2022-11-18T18:45:06.713Z,98345.63
2022-11-18T18:47:36.408Z,98357.75
2022-11-18T18:50:05.904Z,98351.00
2022-11-18T18:52:35.965Z,98348.47
2022-11-18T18:55:04.708Z,98348.47
2022-11-18T18:57:33.389Z,98357.06
2022-11-18T19:00:01.992Z,98349.38
2022-11-18T19:02:30.702Z,98347.78
2022-11-18T19:04:59.853Z,98349.38
2022-11-18T19:07:31.542Z,98350.34
2022-11-18T19:10:02.046Z,98344.41
2022-11-18T19:12:46.293Z,98350.44
2022-11-18T19:15:16.743Z,98360.69
2022-11-18T19:17:46.154Z,98355.69
2022-11-18T19:20:36.771Z,98361.66
2022-11-18T19:23:10.349Z,98360.94
2022-11-18T19:25:41.026Z,98357.59
2022-11-18T19:28:11.478Z,98371.19
2022-11-18T19:30:40.219Z,98367.69
2022-11-18T19:33:08.816Z,98366.91
2022-11-18T19:35:38.577Z,98366.91
2022-11-18T19:38:07.245Z,98372.81
2022-11-18T19:40:36.052Z,98379.69
2022-11-18T19:43:06.404Z,98374.56
2022-11-18T19:45:35.083Z,98381.41
2022-11-18T19:48:04.339Z,98382.25
2022-11-18T19:50:33.060Z,98375.50
2022-11-18T19:53:21.724Z,98385.72
2022-11-18T19:55:56.125Z,98380.59
2022-11-18T19:58:26.405Z,98384.09
2022-11-18T20:00:55.307Z,98380.59
2022-11-18T20:03:23.935Z,98386.53
2022-11-18T20:05:55.465Z,98384.81
2022-11-18T20:08:26.400Z,98377.13
2022-11-18T20:10:55.025Z,98380.47
2022-11-18T20:13:25.295Z,98383.84
2022-11-18T20:15:54.116Z,98378.72
2022-11-18T20:18:23.271Z,98388.94
2022-11-18T20:20:51.873Z,98381.28
2022-11-18T20:23:20.681Z,98383.69
2022-11-18T20:25:49.428Z,98379.41
2022-11-18T20:28:18.446Z,98392.19
2022-11-18T20:30:49.005Z,98388.81
2022-11-18T20:33:17.833Z,98392.19
2022-11-18T20:35:46.453Z,98394.75
2022-11-18T20:38:15.101Z,98397.31
2022-11-18T20:40:43.839Z,98402.44
2022-11-18T20:43:15.419Z,98403.22
2022-11-18T20:45:44.960Z,98402.44
2022-11-18T20:48:15.115Z,98405.78
2022-11-18T20:50:44.065Z,98402.44
2022-11-18T20:53:12.665Z,98406.63
2022-11-18T20:55:41.404Z,98411.75
2022-11-18T20:58:10.037Z,98409.19
2022-11-18T21:00:38.686Z,98415.09
2022-11-18T21:03:27.210Z,98411.84
2022-11-18T21:06:15.618Z,98421.25
2022-11-18T21:09:05.227Z,98424.63
2022-11-18T21:11:52.634Z,98428.28
2022-11-18T21:14:40.158Z,98427.31
2022-11-18T21:17:27.290Z,98418.03
2022-11-18T21:20:29.823Z,98415.50
2022-11-18T21:23:17.211Z,98416.41
2022-11-18T21:26:06.244Z,98415.50
2022-11-18T21:28:59.869Z,98416.41
2022-11-18T21:31:47.408Z,98428.28
2022-11-18T21:34:34.674Z,98424.09
2022-11-18T21:37:23.254Z,98425.03
2022-11-18T21:40:12.309Z,98420.69
2022-11-18T21:42:59.498Z,98425.03
2022-11-18T21:45:46.676Z,98425.03
2022-11-18T21:48:34.538Z,98424.22
2022-11-18T21:51:24.646Z,98426.91
2022-11-18T21:54:16.000Z,98435.50
2022-11-18T21:57:02.947Z,98433.88
2022-11-18T21:59:49.975Z,98431.31
2022-11-18T22:02:37.450Z,98428.91
2022-11-18T22:05:24.833Z,98425.53
2022-11-18T22:08:12.447Z,98429.03
2022-11-18T22:11:00.959Z,98431.72
2022-11-18T22:13:48.439Z,98423.22
2022-11-18T22:16:35.431Z,98436.84
2022-11-18T22:19:22.863Z,98436.00
2022-11-18T22:22:10.321Z,98430.88
2022-11-18T22:24:57.326Z,98422.41
2022-11-18T22:27:45.724Z,98424.16
2022-11-18T22:30:32.963Z,98430.22
2022-11-18T22:33:20.640Z,98424.16
2022-11-18T22:36:10.469Z,98433.44
2022-11-18T22:38:57.764Z,98425.78
2022-11-18T22:42:02.372Z,98431.81
2022-11-18T22:44:51.134Z,98435.22
2022-11-18T22:47:38.624Z,98427.53
2022-11-18T22:50:25.642Z,98432.66
2022-11-18T22:53:13.524Z,98430.09
2022-11-18T22:56:05.055Z,98438.56
2022-11-18T22:58:52.691Z,98425.78
2022-11-18T23:01:41.824Z,98436.00
2022-11-18T23:04:28.868Z,98438.56
2022-11-18T23:07:16.262Z,98437.75
2022-11-18T23:10:03.371Z,98436.00
2022-11-18T23:13:08.109Z,98437.75
2022-11-18T23:15:59.204Z,98440.44
2022-11-18T23:18:48.299Z,98443.00
2022-11-18T23:21:35.915Z,98448.13
2022-11-18T23:24:23.131Z,98440.31
2022-11-18T23:27:10.815Z,98447.28
2022-11-18T23:29:57.936Z,98447.16
2022-11-18T23:32:44.996Z,98452.28
2022-11-18T23:35:33.641Z,98458.34
2022-11-18T23:38:20.608Z,98453.09
2022-11-18T23:41:09.772Z,98454.84
2022-11-18T23:43:56.935Z,98448.78
2022-11-18T23:46:44.350Z,98442.75
2022-11-18T23:49:31.243Z,98448.78
2022-11-18T23:52:19.671Z,98455.53
2022-11-18T23:55:08.021Z,98464.00
2022-11-18T23:57:55.176Z,98467.38
